Mings Chapel, Texas
Current Conditions -  °F | °C
As of 3:15 PM on Tuesday 21 Oct 2014 (Local Time) from KOSA Reporting Station
Scattered Clouds Scattered Clouds  
Wind Chill: 78°   Ceiling: Unl
Heat Index: 79°   Visibility: 10mi
Dew Point: 59°   Wind: 0mph
Humidity: 52%   Direction: NA
Pressure: 30.06"   Gusts: NA
Location:  32.7353°N, 94.9492°W
Report Text: KOSA 212015Z AUTO 00000KT 10SM SCT040 26/15 A3006 RMK AO1 T02560152
Loading
Personal Weather Stations






























Interactive Weather Map
Tropical Storm Tracking
New forecast layout! Learn more

10-Day Weather Forecast

Advertisements
Track Severe Weather on mobile